createdAt,value
2022-09-27T00:02:21.775Z,3.52
2022-09-27T00:04:53.910Z,4.00
2022-09-27T00:07:25.930Z,3.50
2022-09-27T00:09:57.896Z,3.98
2022-09-27T00:12:29.929Z,3.90
2022-09-27T00:15:02.481Z,3.25
2022-09-27T00:17:34.786Z,3.55
2022-09-27T00:20:08.353Z,3.92
2022-09-27T00:22:40.523Z,3.37
2022-09-27T00:25:12.523Z,3.90
2022-09-27T00:27:44.866Z,3.87
2022-09-27T00:30:17.024Z,4.55
2022-09-27T00:32:49.286Z,4.10
2022-09-27T00:35:21.255Z,4.60
2022-09-27T00:37:53.550Z,4.62
2022-09-27T00:40:25.577Z,5.05
2022-09-27T00:42:57.967Z,4.30
2022-09-27T00:45:30.362Z,4.25
2022-09-27T00:48:05.599Z,4.60
2022-09-27T00:50:41.031Z,4.62
2022-09-27T00:53:18.811Z,4.72
2022-09-27T00:56:02.703Z,4.45
2022-09-27T00:58:40.616Z,4.80
2022-09-27T01:01:14.802Z,4.72
2022-09-27T01:03:55.391Z,4.65
2022-09-27T01:06:27.700Z,4.53
2022-09-27T01:08:59.948Z,4.62
2022-09-27T01:11:38.108Z,4.22
2022-09-27T01:14:32.420Z,4.25
2022-09-27T01:17:25.448Z,4.57
2022-09-27T01:20:09.625Z,4.83
2022-09-27T01:23:19.117Z,5.37
2022-09-27T01:26:19.872Z,4.60
2022-09-27T01:29:20.251Z,4.85
2022-09-27T01:31:58.299Z,5.03
2022-09-27T01:34:42.249Z,4.95
2022-09-27T01:37:20.174Z,5.03
2022-09-27T01:39:55.131Z,5.65
2022-09-27T01:42:40.720Z,5.78
2022-09-27T01:45:22.869Z,5.83
2022-09-27T01:48:11.169Z,5.35
2022-09-27T01:51:13.398Z,6.20
2022-09-27T01:53:51.833Z,5.83
2022-09-27T01:56:37.529Z,5.78
2022-09-27T01:59:22.940Z,5.30
2022-09-27T02:01:59.915Z,6.10
2022-09-27T02:04:35.879Z,5.20
2022-09-27T02:07:30.622Z,5.92
2022-09-27T02:10:05.873Z,5.15
2022-09-27T02:12:42.941Z,5.75
2022-09-27T02:15:16.809Z,5.45
2022-09-27T02:18:05.565Z,5.58
2022-09-27T02:20:40.601Z,5.80
2022-09-27T02:23:32.205Z,5.37
2022-09-27T02:26:14.944Z,5.33
2022-09-27T02:28:58.653Z,5.30
2022-09-27T02:31:32.519Z,5.08
2022-09-27T02:34:16.603Z,5.10
2022-09-27T02:36:49.177Z,5.70
2022-09-27T02:39:21.740Z,6.37
2022-09-27T02:41:58.275Z,6.20
2022-09-27T02:44:31.422Z,5.90
2022-09-27T02:47:18.985Z,4.07
2022-09-27T02:49:57.201Z,5.10
2022-09-27T02:52:52.256Z,5.37
2022-09-27T02:56:00.706Z,5.53
2022-09-27T02:59:09.441Z,5.17
2022-09-27T03:02:18.195Z,4.60
2022-09-27T03:05:15.637Z,4.30
2022-09-27T03:07:48.718Z,4.05
2022-09-27T03:10:23.953Z,3.77
2022-09-27T03:12:56.960Z,5.10
2022-09-27T03:15:29.447Z,4.50
2022-09-27T03:18:08.984Z,4.40
2022-09-27T03:20:48.726Z,4.28
2022-09-27T03:23:22.805Z,5.62
2022-09-27T03:25:56.125Z,3.77
2022-09-27T03:28:30.024Z,4.20
2022-09-27T03:31:02.391Z,4.37
2022-09-27T03:33:36.164Z,4.65
2022-09-27T03:36:09.988Z,4.85
2022-09-27T03:38:42.326Z,4.00
2022-09-27T03:41:15.891Z,4.08
2022-09-27T03:43:48.505Z,4.70
2022-09-27T03:46:21.003Z,4.10
2022-09-27T03:48:53.219Z,4.55
2022-09-27T03:51:26.053Z,5.33
2022-09-27T03:53:58.323Z,5.42
2022-09-27T03:56:30.548Z,6.92
2022-09-27T03:59:02.781Z,6.20
2022-09-27T04:01:38.267Z,4.85
2022-09-27T04:04:12.153Z,6.33
2022-09-27T04:06:44.358Z,6.30
2022-09-27T04:09:17.004Z,7.45
2022-09-27T04:11:50.749Z,6.25
2022-09-27T04:14:23.591Z,6.37
2022-09-27T04:17:03.912Z,6.12
2022-09-27T04:19:38.303Z,6.35
2022-09-27T04:22:13.809Z,6.58
2022-09-27T04:24:47.401Z,6.60
2022-09-27T04:27:22.838Z,5.63
2022-09-27T04:29:55.471Z,6.95
2022-09-27T04:32:46.196Z,6.33
2022-09-27T04:35:55.251Z,5.92
2022-09-27T04:38:27.710Z,5.85
2022-09-27T04:41:01.549Z,5.87
2022-09-27T04:43:35.327Z,5.92
2022-09-27T04:46:08.017Z,6.08
2022-09-27T04:48:40.157Z,6.97
2022-09-27T04:51:12.581Z,9.50
2022-09-27T04:53:46.449Z,5.92
2022-09-27T04:56:18.516Z,6.20
2022-09-27T04:58:50.624Z,6.35
2022-09-27T05:01:25.265Z,5.97
2022-09-27T05:03:59.535Z,6.42
2022-09-27T05:06:32.743Z,6.03
2022-09-27T05:09:06.556Z,6.47
2022-09-27T05:11:55.874Z,6.30
2022-09-27T05:14:45.159Z,8.53
2022-09-27T05:17:19.767Z,6.45
2022-09-27T05:19:54.595Z,6.17
2022-09-27T05:22:33.051Z,5.67
2022-09-27T05:25:06.854Z,6.67
2022-09-27T05:27:41.365Z,5.70
2022-09-27T05:30:14.545Z,4.62
2022-09-27T05:32:51.788Z,5.42
2022-09-27T05:35:45.460Z,4.30
2022-09-27T05:38:16.550Z,4.30
2022-09-27T05:40:52.159Z,4.55
2022-09-27T05:43:25.315Z,5.28
2022-09-27T05:45:58.917Z,4.92
2022-09-27T05:48:31.780Z,6.03
2022-09-27T05:51:08.728Z,6.15
2022-09-27T05:53:42.861Z,5.83
2022-09-27T05:56:17.494Z,5.75
2022-09-27T05:58:52.493Z,6.17
2022-09-27T06:01:27.460Z,5.75
2022-09-27T06:04:05.822Z,5.50
2022-09-27T06:06:42.546Z,5.95
2022-09-27T06:09:17.068Z,6.58
2022-09-27T06:11:51.232Z,6.53
2022-09-27T06:14:23.941Z,7.30
2022-09-27T06:17:06.773Z,7.75
2022-09-27T06:19:41.365Z,7.17
2022-09-27T06:22:13.754Z,8.05
2022-09-27T06:24:47.787Z,6.42
2022-09-27T06:27:21.588Z,7.70
2022-09-27T06:29:56.216Z,7.97
2022-09-27T06:32:41.687Z,10.08
2022-09-27T06:35:31.362Z,8.85
2022-09-27T06:38:10.141Z,9.80
2022-09-27T06:40:47.771Z,11.10
2022-09-27T06:43:22.260Z,9.78
2022-09-27T06:45:56.065Z,10.53
2022-09-27T06:48:46.069Z,8.38
2022-09-27T06:51:20.707Z,8.80
2022-09-27T06:53:53.852Z,7.30
2022-09-27T06:56:26.763Z,7.65
2022-09-27T06:59:17.689Z,6.95
2022-09-27T07:01:55.053Z,7.37
2022-09-27T07:04:40.798Z,7.12
2022-09-27T07:07:14.707Z,8.05
2022-09-27T07:09:48.935Z,9.33
2022-09-27T07:12:23.257Z,8.15
2022-09-27T07:14:55.716Z,9.15
2022-09-27T07:17:28.172Z,8.85
2022-09-27T07:20:00.797Z,10.20
2022-09-27T07:22:34.259Z,8.80
2022-09-27T07:25:07.992Z,8.73
2022-09-27T07:27:42.656Z,8.78
2022-09-27T07:30:17.085Z,8.58
2022-09-27T07:32:50.297Z,9.20
2022-09-27T07:35:22.553Z,8.33
2022-09-27T07:37:54.924Z,9.95
2022-09-27T07:40:28.149Z,8.63
2022-09-27T07:43:00.402Z,8.68
2022-09-27T07:45:33.316Z,8.05
2022-09-27T07:48:12.708Z,7.12
2022-09-27T07:51:02.567Z,6.95
2022-09-27T07:53:45.749Z,7.72
2022-09-27T07:56:19.965Z,8.05
2022-09-27T07:58:52.349Z,7.83
2022-09-27T08:01:24.633Z,7.15
2022-09-27T08:03:58.732Z,8.30
2022-09-27T08:06:31.570Z,8.18
2022-09-27T08:09:05.240Z,8.73
2022-09-27T08:11:38.375Z,8.98
2022-09-27T08:14:11.709Z,8.13
2022-09-27T08:16:45.704Z,7.35
2022-09-27T08:19:34.849Z,7.25
2022-09-27T08:22:09.835Z,8.58
2022-09-27T08:24:52.679Z,6.62
2022-09-27T08:27:30.185Z,4.28
2022-09-27T08:30:04.123Z,4.80
2022-09-27T08:32:36.729Z,5.75
2022-09-27T08:35:10.921Z,6.85
2022-09-27T08:37:44.010Z,9.03
2022-09-27T08:40:17.940Z,6.05
2022-09-27T08:42:57.205Z,6.60
2022-09-27T08:45:41.333Z,6.42
2022-09-27T08:48:15.320Z,6.90
2022-09-27T08:50:50.358Z,5.87
2022-09-27T08:53:28.691Z,6.37
2022-09-27T08:56:03.947Z,6.53
2022-09-27T08:59:04.628Z,7.17
2022-09-27T09:01:39.289Z,19.87
2022-09-27T09:04:15.561Z,7.08
2022-09-27T09:09:56.390Z,6.78
2022-09-27T09:12:52.616Z,6.78
2022-09-27T09:15:54.960Z,7.83
2022-09-27T09:18:46.719Z,6.85
2022-09-27T09:21:23.495Z,7.20
2022-09-27T09:24:07.666Z,14.28
2022-09-27T09:26:43.866Z,6.80
2022-09-27T09:29:24.679Z,4.17
2022-09-27T09:32:08.495Z,3.83
2022-09-27T09:34:49.711Z,3.83
2022-09-27T09:37:24.829Z,4.00
2022-09-27T09:40:06.675Z,6.20
2022-09-27T09:42:48.335Z,4.25
2022-09-27T09:45:28.213Z,3.87
2022-09-27T09:48:07.769Z,3.83
2022-09-27T09:50:51.449Z,4.33
2022-09-27T09:53:35.730Z,6.72
2022-09-27T09:56:10.966Z,12.68
2022-09-27T09:58:51.458Z,4.67
2022-09-27T10:01:40.425Z,7.22
2022-09-27T10:04:28.130Z,8.68
2022-09-27T10:07:03.032Z,4.70
2022-09-27T10:12:26.240Z,7.15
2022-09-27T10:15:01.693Z,4.90
2022-09-27T10:17:41.851Z,3.60
2022-09-27T10:20:36.447Z,3.95
2022-09-27T10:23:15.100Z,3.70
2022-09-27T10:26:07.721Z,5.95
2022-09-27T10:28:45.467Z,3.77
2022-09-27T10:31:21.697Z,14.43
2022-09-27T10:34:05.577Z,3.27
2022-09-27T10:36:39.483Z,3.60
2022-09-27T10:39:14.577Z,3.58
2022-09-27T10:41:48.694Z,4.83
2022-09-27T10:44:32.295Z,2.77
2022-09-27T10:47:10.991Z,4.45
2022-09-27T10:49:54.847Z,3.00
2022-09-27T10:52:29.083Z,3.33
2022-09-27T10:55:04.113Z,3.42
2022-09-27T10:57:36.076Z,3.72
2022-09-27T11:00:29.790Z,3.47
2022-09-27T11:03:05.677Z,3.10
2022-09-27T11:05:40.157Z,4.37
2022-09-27T11:08:24.348Z,3.53
2022-09-27T11:11:16.676Z,3.58
2022-09-27T11:14:07.739Z,3.02
2022-09-27T11:16:47.274Z,2.52
2022-09-27T11:19:46.787Z,2.37
2022-09-27T11:22:37.281Z,4.33
2022-09-27T11:25:21.404Z,3.60
2022-09-27T11:28:11.815Z,3.35
2022-09-27T11:30:47.093Z,3.05
2022-09-27T11:33:32.865Z,2.30
2022-09-27T11:36:19.823Z,2.33
2022-09-27T11:39:14.476Z,3.25
2022-09-27T11:41:58.189Z,15.20
2022-09-27T11:44:46.710Z,7.12
2022-09-27T11:47:26.329Z,3.40
2022-09-27T11:50:05.222Z,2.60
2022-09-27T11:53:13.016Z,2.70
2022-09-27T11:55:54.097Z,3.42
2022-09-27T11:58:57.982Z,2.92
2022-09-27T12:01:49.737Z,4.28
2022-09-27T12:04:44.735Z,2.90
2022-09-27T12:07:31.944Z,2.95
2022-09-27T12:10:07.157Z,2.20
2022-09-27T12:12:45.470Z,2.80
2022-09-27T12:15:20.745Z,2.40
2022-09-27T12:17:56.155Z,4.35
2022-09-27T12:20:34.508Z,2.20
2022-09-27T12:23:12.498Z,2.55
2022-09-27T12:25:54.532Z,2.08
2022-09-27T12:28:43.125Z,5.58
2022-09-27T12:31:30.096Z,2.87
2022-09-27T12:34:28.200Z,2.00
2022-09-27T12:37:12.904Z,2.47
2022-09-27T12:39:57.437Z,1.95
2022-09-27T12:45:16.047Z,2.08
2022-09-27T12:47:50.920Z,2.40
2022-09-27T12:50:47.131Z,2.35
2022-09-27T12:53:31.079Z,2.40
2022-09-27T12:56:26.594Z,7.78
2022-09-27T12:59:10.947Z,3.08
2022-09-27T13:01:46.506Z,3.30
2022-09-27T13:04:57.064Z,19.05
2022-09-27T13:07:55.197Z,1.55
2022-09-27T13:11:04.956Z,2.42
2022-09-27T13:13:40.100Z,5.12
2022-09-27T13:16:13.559Z,4.08
2022-09-27T13:18:58.047Z,8.40
2022-09-27T13:21:49.459Z,3.25
2022-09-27T13:24:43.284Z,2.40
2022-09-27T13:27:33.002Z,3.08
2022-09-27T13:30:12.921Z,4.25
2022-09-27T13:33:13.518Z,2.95
2022-09-27T13:36:22.473Z,4.17
2022-09-27T13:39:09.881Z,2.37
2022-09-27T13:41:49.464Z,5.50
2022-09-27T13:44:43.547Z,2.55
2022-09-27T13:47:38.289Z,3.35
2022-09-27T13:50:17.997Z,3.40
2022-09-27T13:53:00.609Z,3.22
2022-09-27T13:55:47.694Z,3.35
2022-09-27T13:58:42.455Z,3.05
2022-09-27T14:01:25.015Z,3.72
2022-09-27T14:04:06.039Z,3.87
2022-09-27T14:06:41.245Z,3.25
2022-09-27T14:09:19.324Z,3.52
2022-09-27T14:11:55.896Z,3.52
2022-09-27T14:14:31.313Z,2.60
2022-09-27T14:17:09.194Z,3.10
2022-09-27T14:19:41.817Z,3.35
2022-09-27T14:22:19.907Z,3.70
2022-09-27T14:25:00.561Z,3.67
2022-09-27T14:27:38.624Z,3.20
2022-09-27T14:30:21.213Z,2.80
2022-09-27T14:32:57.912Z,2.50
2022-09-27T14:35:50.729Z,2.40
2022-09-27T14:38:37.656Z,2.80
2022-09-27T14:41:04.718Z,3.02
2022-09-27T14:43:39.350Z,2.45
2022-09-27T14:48:44.308Z,2.05
2022-09-27T14:51:20.138Z,2.00
2022-09-27T14:53:55.799Z,2.90
2022-09-27T14:56:32.532Z,2.52
2022-09-27T14:59:21.738Z,2.42
2022-09-27T15:01:55.369Z,2.70
2022-09-27T15:04:28.966Z,3.02
2022-09-27T15:07:03.610Z,3.15
2022-09-27T15:09:37.050Z,2.92
2022-09-27T15:12:09.438Z,2.90
2022-09-27T15:14:44.331Z,2.58
2022-09-27T15:17:21.157Z,3.65
2022-09-27T15:20:04.777Z,2.80
2022-09-27T15:22:40.231Z,5.03
2022-09-27T15:25:25.054Z,3.92
2022-09-27T15:27:57.874Z,3.33
2022-09-27T15:30:41.457Z,3.90
2022-09-27T15:33:25.953Z,3.45
2022-09-27T15:38:40.438Z,2.52
2022-09-27T15:41:21.487Z,3.08
2022-09-27T15:43:54.868Z,2.40
2022-09-27T15:46:33.062Z,2.98
2022-09-27T15:49:17.498Z,3.80
2022-09-27T15:51:53.278Z,3.00
2022-09-27T15:54:30.024Z,2.80
2022-09-27T15:57:09.876Z,4.22
2022-09-27T15:59:43.593Z,3.70
2022-09-27T16:02:19.820Z,2.60
2022-09-27T16:04:52.393Z,2.72
2022-09-27T16:07:25.188Z,2.95
2022-09-27T16:09:57.767Z,2.83
2022-09-27T16:12:31.500Z,2.90
2022-09-27T16:15:03.569Z,3.60
2022-09-27T16:17:37.138Z,2.80
2022-09-27T16:20:11.042Z,3.33
2022-09-27T16:22:42.959Z,2.75
2022-09-27T16:25:15.662Z,3.02
2022-09-27T16:27:48.585Z,2.98
2022-09-27T16:30:21.024Z,2.92
2022-09-27T16:32:53.330Z,3.37
2022-09-27T16:35:26.369Z,2.47
2022-09-27T16:37:58.846Z,2.70
2022-09-27T16:40:32.186Z,3.35
2022-09-27T16:43:06.245Z,2.83
2022-09-27T16:45:38.850Z,2.80
2022-09-27T16:48:10.861Z,3.20
2022-09-27T16:51:00.661Z,2.80
2022-09-27T16:53:33.583Z,2.90
2022-09-27T16:56:05.816Z,3.20
2022-09-27T16:58:38.385Z,3.87
2022-09-27T17:01:10.472Z,3.12
2022-09-27T17:03:42.858Z,3.37
2022-09-27T17:06:15.046Z,3.20
2022-09-27T17:08:48.712Z,2.70
2022-09-27T17:11:21.947Z,3.83
2022-09-27T17:13:56.156Z,3.20
2022-09-27T17:16:28.881Z,3.10
2022-09-27T17:19:02.536Z,3.00
2022-09-27T17:21:38.191Z,3.60
2022-09-27T17:24:13.472Z,3.60
2022-09-27T17:26:47.236Z,3.47
2022-09-27T17:29:24.017Z,3.62
2022-09-27T17:31:56.426Z,3.25
2022-09-27T17:34:28.611Z,2.80
2022-09-27T17:37:01.693Z,4.17
2022-09-27T17:39:34.282Z,3.80
2022-09-27T17:42:07.878Z,3.35
2022-09-27T17:44:40.699Z,3.70
2022-09-27T17:47:30.705Z,3.50
2022-09-27T17:50:20.938Z,3.40
2022-09-27T17:52:54.228Z,3.12
2022-09-27T17:55:27.653Z,3.37
2022-09-27T17:58:01.870Z,3.20
2022-09-27T18:00:34.267Z,3.58
2022-09-27T18:03:07.456Z,3.08
2022-09-27T18:05:39.597Z,3.47
2022-09-27T18:08:12.857Z,3.77
2022-09-27T18:10:45.352Z,3.12
2022-09-27T18:13:18.356Z,4.45
2022-09-27T18:15:59.753Z,3.80
2022-09-27T18:18:34.302Z,3.90
2022-09-27T18:21:09.745Z,4.35
2022-09-27T18:23:44.469Z,4.10
2022-09-27T18:26:18.424Z,4.42
2022-09-27T18:28:55.493Z,5.40
2022-09-27T18:31:28.220Z,4.17
2022-09-27T18:34:00.834Z,3.85
2022-09-27T18:36:33.506Z,4.33
2022-09-27T18:39:18.437Z,4.33
2022-09-27T18:41:52.890Z,3.98
2022-09-27T18:46:58.811Z,4.62
2022-09-27T18:52:03.909Z,4.08
2022-09-27T18:54:36.507Z,4.03
2022-09-27T18:57:08.583Z,4.28
2022-09-27T18:59:41.001Z,4.17
2022-09-27T19:02:13.644Z,3.83
2022-09-27T19:04:46.255Z,3.25
2022-09-27T19:07:18.507Z,3.40
2022-09-27T19:09:50.602Z,3.42
2022-09-27T19:12:22.702Z,4.03
2022-09-27T19:14:54.774Z,3.87
2022-09-27T19:17:26.958Z,4.08
2022-09-27T19:19:59.039Z,4.30
2022-09-27T19:22:33.348Z,3.92
2022-09-27T19:25:05.606Z,3.77
2022-09-27T19:27:41.309Z,4.05
2022-09-27T19:30:12.783Z,3.83
2022-09-27T19:32:45.838Z,4.20
2022-09-27T19:35:18.236Z,4.47
2022-09-27T19:37:50.281Z,4.62
2022-09-27T19:40:22.253Z,4.15
2022-09-27T19:42:55.501Z,3.85
2022-09-27T19:45:27.472Z,3.87
2022-09-27T19:47:59.807Z,4.37
2022-09-27T19:50:32.092Z,3.85
2022-09-27T19:53:04.267Z,4.00
2022-09-27T19:55:37.048Z,4.03
2022-09-27T19:58:09.335Z,4.53
2022-09-27T20:00:41.489Z,4.30
2022-09-27T20:03:13.597Z,4.80
2022-09-27T20:05:46.913Z,3.90
2022-09-27T20:08:18.874Z,3.37
2022-09-27T20:11:06.140Z,4.20
2022-09-27T20:13:37.615Z,3.80
2022-09-27T20:16:12.777Z,4.08
2022-09-27T20:18:53.175Z,4.30
2022-09-27T20:21:28.817Z,4.20
2022-09-27T20:24:03.504Z,4.10
2022-09-27T20:26:36.656Z,3.87
2022-09-27T20:29:11.007Z,4.05
2022-09-27T20:32:03.221Z,3.75
2022-09-27T20:34:19.590Z,4.17
2022-09-27T20:36:52.560Z,5.08
2022-09-27T20:39:24.569Z,4.28
2022-09-27T20:41:56.687Z,4.15
2022-09-27T20:44:28.933Z,4.78
2022-09-27T20:47:01.243Z,4.40
2022-09-27T20:49:33.293Z,3.98
2022-09-27T20:52:06.382Z,3.90
2022-09-27T20:54:38.574Z,3.33
2022-09-27T20:57:10.591Z,3.27
2022-09-27T20:59:42.683Z,3.20
2022-09-27T21:02:14.913Z,3.45
2022-09-27T21:04:46.912Z,3.12
2022-09-27T21:07:20.000Z,3.72
2022-09-27T21:09:52.113Z,3.58
2022-09-27T21:12:24.572Z,3.72
2022-09-27T21:14:56.687Z,3.30
2022-09-27T21:17:29.987Z,3.20
2022-09-27T21:20:02.333Z,3.30
2022-09-27T21:22:34.723Z,2.87
2022-09-27T21:25:07.219Z,3.00
2022-09-27T21:27:40.651Z,2.60
2022-09-27T21:30:13.744Z,2.58
2022-09-27T21:32:45.747Z,2.40
2022-09-27T21:35:17.756Z,2.70
2022-09-27T21:37:50.134Z,2.58
2022-09-27T21:40:23.262Z,2.70
2022-09-27T21:42:57.778Z,2.58
2022-09-27T21:45:29.180Z,2.33
2022-09-27T21:48:01.471Z,2.40
2022-09-27T21:50:33.516Z,2.42
2022-09-27T21:53:05.473Z,2.67
2022-09-27T21:55:37.585Z,2.52
2022-09-27T21:58:09.809Z,2.80
2022-09-27T22:00:42.023Z,2.50
2022-09-27T22:03:13.999Z,2.60
2022-09-27T22:05:47.309Z,2.60
2022-09-27T22:08:19.912Z,2.37
2022-09-27T22:10:52.204Z,2.50
2022-09-27T22:13:24.819Z,2.65
2022-09-27T22:15:57.097Z,2.33
2022-09-27T22:18:29.399Z,2.20
2022-09-27T22:21:04.381Z,2.50
2022-09-27T22:23:37.298Z,2.30
2022-09-27T22:26:24.843Z,2.20
2022-09-27T22:28:57.318Z,2.27
2022-09-27T22:31:30.000Z,2.65
2022-09-27T22:34:04.529Z,2.30
2022-09-27T22:36:36.656Z,2.52
2022-09-27T22:39:08.663Z,2.60
2022-09-27T22:41:40.950Z,2.58
2022-09-27T22:44:12.954Z,2.25
2022-09-27T22:46:46.232Z,2.22
2022-09-27T22:49:18.289Z,2.12
2022-09-27T22:51:50.617Z,2.20
2022-09-27T22:54:22.565Z,2.27
2022-09-27T22:56:56.027Z,2.50
2022-09-27T22:59:28.662Z,2.47
2022-09-27T23:02:00.621Z,2.40
2022-09-27T23:04:32.732Z,2.50
2022-09-27T23:07:04.842Z,2.33
2022-09-27T23:09:36.829Z,2.50
2022-09-27T23:12:09.219Z,1.98
2022-09-27T23:14:42.681Z,2.47
2022-09-27T23:17:15.953Z,2.08
2022-09-27T23:19:47.953Z,2.05
2022-09-27T23:22:19.756Z,2.20
2022-09-27T23:24:51.757Z,2.10
2022-09-27T23:27:41.291Z,2.10
2022-09-27T23:30:16.267Z,2.20
2022-09-27T23:32:58.484Z,2.20
2022-09-27T23:35:31.461Z,2.30
2022-09-27T23:38:03.742Z,2.15
2022-09-27T23:40:36.734Z,2.50
2022-09-27T23:43:09.218Z,2.08
2022-09-27T23:45:41.162Z,2.08
2022-09-27T23:48:13.409Z,2.22
2022-09-27T23:50:45.381Z,2.02
2022-09-27T23:53:17.327Z,2.33
2022-09-27T23:55:50.157Z,2.52
2022-09-27T23:58:22.449Z,2.60
